Crofton, MD (21114)

11:31 AM EDT on September 20, 2014 (GMT -0400)
Cedar Grove | Change Station
CLOSE
Current Station
Personal Weather Station
Location: Crofton, MD
Elevation: 98 ft
Nearby Weather Stations
Active Advisory: Coastal Flood Advisory

Elev 98 ft 39.01 °N, 76.69 °W | Updated 54 seconds ago

Mostly Cloudy
Mostly Cloudy
72.4 °F
Feels Like 74 °F
N
0.0
Wind Variable Wind from SSW
Gusts 4.0 mph

Today
High -- | Low -- °F
--% Chance of Precip.
Yesterday
High -- | Low -- °F
Precip. -- in
6:52 AM 7:07 PM
Waning Crescent, 12% visible
Pressure 30.26 in
Visibility 10.0 miles
Clouds Scattered Clouds 2500 ft
Scattered Clouds 3000 ft
Heat Index 74 °F
Dew Point 63 °F
Humidity 72%
Rainfall 0.00 in
Snow Depth Not available.
UV 5 out of 12
Pollen 3.90 out of 12
Air Quality Not available.
Flu Activity Not available.
METAR KFME 201521Z AUTO 20005KT 10SM SCT025 SCT030 22/16 A3026 RMK AO1

More Conditions Fewer Conditions

Pressure 30.26 in
Visibility 10.0 miles
Clouds Scattered Clouds 2500 ft
Scattered Clouds 3000 ft
Heat Index 74 °F
Dew Point 63 °F
Humidity 72%
Rainfall 0.00 in
Snow Depth Not available.
UV 5 out of 12
Pollen 3.90 out of 12
Air Quality Not available.
Flu Activity Not available.
METAR KFME 201521Z AUTO 20005KT 10SM SCT025 SCT030 22/16 A3026 RMK AO1

More Conditions Fewer Conditions

10-Day Weather Forecast

Almanac

Astronomy

Sep. 20, 2014 Rise Set
Actual Time 6:52 AM EDT 7:07 PM EDT
Civil Twilight 6:25 AM EDT 7:33 PM EDT
Nautical Twilight 5:54 AM EDT 8:04 PM EDT
Astronomical Twilight 5:22 AM EDT 8:36 PM EDT
Moon 3:31 AM EDT 5:08 PM EDT
Length of Visible Light 13h 07m
Length of Day
12h 14m
Tomorrow will be 2m 31s shorter.
Waning Crescent, 12% of the Moon is Illuminated
Today
Waning Crescent
Sep 24
New
Oct 1
First Quarter
Oct 8
Full
Oct 15
Last Quarter

Today's Extremes

State Highs State Lows

Community

WunderPhotos

Upload Photos

1,754,877 photos uploaded!

Nearby

Snow Depth

Station Depth Elevation
No new snow has been reported.

Earthquake Activity

City Distance Mag. Time & Date
No recent earthquake activity has been reported nearby.
Minimum magnitude displayed is 2.5.

Coastal Water Temperatures

Place Temperature
Cambridge, MD 73.9 °F
Tolchester Beach, MD 72.0 °F
Baltimore, MD 75.0 °F

Nearby Weather Stations